Woodcrest, California
Current Conditions -  °F | °C
As of 2:53 PM on Monday 24 Nov 2014 (Local Time) from KRAL Reporting Station
Clear Clear  
Wind Chill: 76°   Ceiling: Unl
Heat Index: 76°   Visibility: 10mi
Dew Point: 10°   Wind: 13mph
Humidity: 8%   Direction: 10°N
Pressure: 30.21"   Gusts: 28mph
Location:  33.9119°N, 117.4°W
Report Text: KRAL 242253Z 01011G24KT 10SM CLR 24/M12 A3021 RMK AO2 SLP218 T02441122
Loading
Personal Weather Stations






























Interactive Weather Map New forecast layout! Learn more

10-Day Weather Forecast

Advertisements
Track Severe Weather on mobile